sensor_id;sensor_type;location;lat;lon;timestamp;temperature;humidity
23618;DHT22;18207;32.078;34.818;2022-08-02T00:01:30;32.20;49.40
23618;DHT22;18207;32.078;34.818;2022-08-02T00:04:04;32.10;49.40
23618;DHT22;18207;32.078;34.818;2022-08-02T00:06:36;32.10;49.50
23618;DHT22;18207;32.078;34.818;2022-08-02T00:09:08;32.10;49.60
23618;DHT22;18207;32.078;34.818;2022-08-02T00:11:38;32.00;49.50
23618;DHT22;18207;32.078;34.818;2022-08-02T00:14:09;32.00;49.50
23618;DHT22;18207;32.078;34.818;2022-08-02T00:16:40;32.00;49.50
23618;DHT22;18207;32.078;34.818;2022-08-02T00:19:13;32.00;49.60
23618;DHT22;18207;32.078;34.818;2022-08-02T00:21:44;32.00;49.70
23618;DHT22;18207;32.078;34.818;2022-08-02T00:24:16;32.00;49.70
23618;DHT22;18207;32.078;34.818;2022-08-02T00:26:57;32.00;49.70
23618;DHT22;18207;32.078;34.818;2022-08-02T00:29:36;31.90;49.80
23618;DHT22;18207;32.078;34.818;2022-08-02T00:32:19;31.90;49.80
23618;DHT22;18207;32.078;34.818;2022-08-02T00:34:52;31.90;49.80
23618;DHT22;18207;32.078;34.818;2022-08-02T00:37:23;31.90;49.90
23618;DHT22;18207;32.078;34.818;2022-08-02T00:39:54;31.90;49.90
23618;DHT22;18207;32.078;34.818;2022-08-02T00:42:26;31.90;49.90
23618;DHT22;18207;32.078;34.818;2022-08-02T00:44:57;31.90;49.90
23618;DHT22;18207;32.078;34.818;2022-08-02T00:47:28;31.90;50.10
23618;DHT22;18207;32.078;34.818;2022-08-02T00:50:01;31.90;50.00
23618;DHT22;18207;32.078;34.818;2022-08-02T00:52:31;31.90;50.00
23618;DHT22;18207;32.078;34.818;2022-08-02T00:55:03;31.90;50.00
23618;DHT22;18207;32.078;34.818;2022-08-02T00:57:38;31.90;50.10
23618;DHT22;18207;32.078;34.818;2022-08-02T01:00:10;31.90;50.10
23618;DHT22;18207;32.078;34.818;2022-08-02T01:02:41;31.80;50.00
23618;DHT22;18207;32.078;34.818;2022-08-02T01:05:15;31.80;50.10
23618;DHT22;18207;32.078;34.818;2022-08-02T01:07:47;31.80;50.10
23618;DHT22;18207;32.078;34.818;2022-08-02T01:10:18;31.90;50.10
23618;DHT22;18207;32.078;34.818;2022-08-02T01:12:49;31.80;49.90
23618;DHT22;18207;32.078;34.818;2022-08-02T01:15:20;31.80;49.90
23618;DHT22;18207;32.078;34.818;2022-08-02T01:18:05;31.80;49.80
23618;DHT22;18207;32.078;34.818;2022-08-02T01:24:34;31.80;49.70
23618;DHT22;18207;32.078;34.818;2022-08-02T01:27:28;31.90;49.70
23618;DHT22;18207;32.078;34.818;2022-08-02T01:30:11;31.90;49.90
23618;DHT22;18207;32.078;34.818;2022-08-02T01:32:48;31.90;49.90
23618;DHT22;18207;32.078;34.818;2022-08-02T01:35:29;31.90;49.80
23618;DHT22;18207;32.078;34.818;2022-08-02T01:38:22;31.90;50.00
23618;DHT22;18207;32.078;34.818;2022-08-02T01:41:00;31.80;49.90
23618;DHT22;18207;32.078;34.818;2022-08-02T01:43:41;31.90;50.00
23618;DHT22;18207;32.078;34.818;2022-08-02T01:46:17;31.90;50.00
23618;DHT22;18207;32.078;34.818;2022-08-02T01:48:53;31.80;50.00
23618;DHT22;18207;32.078;34.818;2022-08-02T01:51:28;31.80;50.10
23618;DHT22;18207;32.078;34.818;2022-08-02T01:54:21;31.80;50.00
23618;DHT22;18207;32.078;34.818;2022-08-02T01:56:59;31.80;50.10
23618;DHT22;18207;32.078;34.818;2022-08-02T01:59:33;31.80;50.10
23618;DHT22;18207;32.078;34.818;2022-08-02T02:02:08;31.80;50.20
23618;DHT22;18207;32.078;34.818;2022-08-02T02:04:43;31.80;50.20
23618;DHT22;18207;32.078;34.818;2022-08-02T02:07:18;31.70;50.20
23618;DHT22;18207;32.078;34.818;2022-08-02T02:09:50;31.70;50.20
23618;DHT22;18207;32.078;34.818;2022-08-02T02:12:24;31.70;50.20
23618;DHT22;18207;32.078;34.818;2022-08-02T02:14:58;31.70;50.30
23618;DHT22;18207;32.078;34.818;2022-08-02T02:17:33;31.70;50.20
23618;DHT22;18207;32.078;34.818;2022-08-02T02:20:26;31.70;50.20
23618;DHT22;18207;32.078;34.818;2022-08-02T02:22:58;31.70;50.30
23618;DHT22;18207;32.078;34.818;2022-08-02T02:25:30;31.60;50.20
23618;DHT22;18207;32.078;34.818;2022-08-02T02:28:18;31.60;50.10
23618;DHT22;18207;32.078;34.818;2022-08-02T02:30:59;31.60;50.10
23618;DHT22;18207;32.078;34.818;2022-08-02T02:33:43;31.60;50.20
23618;DHT22;18207;32.078;34.818;2022-08-02T02:36:19;31.60;50.30
23618;DHT22;18207;32.078;34.818;2022-08-02T02:38:52;31.60;50.30
23618;DHT22;18207;32.078;34.818;2022-08-02T02:41:25;31.60;50.30
23618;DHT22;18207;32.078;34.818;2022-08-02T02:44:00;31.60;50.20
23618;DHT22;18207;32.078;34.818;2022-08-02T02:46:33;31.60;50.20
23618;DHT22;18207;32.078;34.818;2022-08-02T02:49:09;31.60;50.20
23618;DHT22;18207;32.078;34.818;2022-08-02T02:51:41;31.60;50.30
23618;DHT22;18207;32.078;34.818;2022-08-02T02:54:15;31.50;50.30
23618;DHT22;18207;32.078;34.818;2022-08-02T02:57:00;31.60;50.30
23618;DHT22;18207;32.078;34.818;2022-08-02T02:59:34;31.60;50.30
23618;DHT22;18207;32.078;34.818;2022-08-02T03:02:16;31.60;50.30
23618;DHT22;18207;32.078;34.818;2022-08-02T03:04:51;31.60;50.30
23618;DHT22;18207;32.078;34.818;2022-08-02T03:07:25;31.60;50.30
23618;DHT22;18207;32.078;34.818;2022-08-02T03:09:56;31.60;50.80
23618;DHT22;18207;32.078;34.818;2022-08-02T03:12:28;31.60;50.30
23618;DHT22;18207;32.078;34.818;2022-08-02T03:15:02;31.50;50.20
23618;DHT22;18207;32.078;34.818;2022-08-02T03:17:37;31.60;50.30
23618;DHT22;18207;32.078;34.818;2022-08-02T03:20:15;31.60;50.40
23618;DHT22;18207;32.078;34.818;2022-08-02T03:22:49;31.50;50.30
23618;DHT22;18207;32.078;34.818;2022-08-02T03:25:20;31.50;50.30
23618;DHT22;18207;32.078;34.818;2022-08-02T03:27:52;31.50;50.30
23618;DHT22;18207;32.078;34.818;2022-08-02T03:30:22;31.50;50.30
23618;DHT22;18207;32.078;34.818;2022-08-02T03:32:54;31.50;50.40
23618;DHT22;18207;32.078;34.818;2022-08-02T03:35:28;31.50;50.40
23618;DHT22;18207;32.078;34.818;2022-08-02T03:37:59;31.50;50.40
23618;DHT22;18207;32.078;34.818;2022-08-02T03:40:31;31.50;50.30
23618;DHT22;18207;32.078;34.818;2022-08-02T03:43:02;31.50;50.40
23618;DHT22;18207;32.078;34.818;2022-08-02T03:45:36;31.50;50.40
23618;DHT22;18207;32.078;34.818;2022-08-02T03:48:10;31.50;50.40
23618;DHT22;18207;32.078;34.818;2022-08-02T03:51:03;31.50;50.40
23618;DHT22;18207;32.078;34.818;2022-08-02T03:53:36;31.40;50.30
23618;DHT22;18207;32.078;34.818;2022-08-02T03:56:08;31.40;50.40
23618;DHT22;18207;32.078;34.818;2022-08-02T03:58:39;31.50;50.50
23618;DHT22;18207;32.078;34.818;2022-08-02T04:01:15;31.50;50.40
23618;DHT22;18207;32.078;34.818;2022-08-02T04:03:46;31.50;50.50
23618;DHT22;18207;32.078;34.818;2022-08-02T04:06:19;31.50;50.50
23618;DHT22;18207;32.078;34.818;2022-08-02T04:08:54;31.50;50.60
23618;DHT22;18207;32.078;34.818;2022-08-02T04:11:26;31.50;50.50
23618;DHT22;18207;32.078;34.818;2022-08-02T04:14:02;31.50;50.50
23618;DHT22;18207;32.078;34.818;2022-08-02T04:16:41;31.60;50.50
23618;DHT22;18207;32.078;34.818;2022-08-02T04:19:15;31.60;50.50
23618;DHT22;18207;32.078;34.818;2022-08-02T04:21:54;31.60;50.50
23618;DHT22;18207;32.078;34.818;2022-08-02T04:24:28;31.60;50.50
23618;DHT22;18207;32.078;34.818;2022-08-02T04:27:05;31.60;50.50
23618;DHT22;18207;32.078;34.818;2022-08-02T04:29:59;31.60;50.50
23618;DHT22;18207;32.078;34.818;2022-08-02T04:32:32;31.70;50.50
23618;DHT22;18207;32.078;34.818;2022-08-02T04:35:06;31.70;50.50
23618;DHT22;18207;32.078;34.818;2022-08-02T04:37:48;31.70;50.80
23618;DHT22;18207;32.078;34.818;2022-08-02T04:40:37;31.80;50.50
23618;DHT22;18207;32.078;34.818;2022-08-02T04:43:08;31.80;50.40
23618;DHT22;18207;32.078;34.818;2022-08-02T04:45:39;31.80;50.40
23618;DHT22;18207;32.078;34.818;2022-08-02T04:48:11;31.80;50.40
23618;DHT22;18207;32.078;34.818;2022-08-02T04:50:43;31.80;50.40
23618;DHT22;18207;32.078;34.818;2022-08-02T04:53:16;31.80;50.40
23618;DHT22;18207;32.078;34.818;2022-08-02T04:55:48;31.90;50.40
23618;DHT22;18207;32.078;34.818;2022-08-02T04:58:20;31.90;50.40
23618;DHT22;18207;32.078;34.818;2022-08-02T05:01:06;32.00;50.40
23618;DHT22;18207;32.078;34.818;2022-08-02T05:03:38;32.00;50.40
23618;DHT22;18207;32.078;34.818;2022-08-02T05:06:08;32.00;50.40
23618;DHT22;18207;32.078;34.818;2022-08-02T05:08:48;32.00;50.40
23618;DHT22;18207;32.078;34.818;2022-08-02T05:11:20;32.00;50.40
23618;DHT22;18207;32.078;34.818;2022-08-02T05:14:03;32.10;50.40
23618;DHT22;18207;32.078;34.818;2022-08-02T05:16:35;32.20;50.40
23618;DHT22;18207;32.078;34.818;2022-08-02T05:19:06;32.20;50.30
23618;DHT22;18207;32.078;34.818;2022-08-02T05:21:37;32.20;50.30
23618;DHT22;18207;32.078;34.818;2022-08-02T05:24:11;32.20;50.30
23618;DHT22;18207;32.078;34.818;2022-08-02T05:26:42;32.20;50.30
23618;DHT22;18207;32.078;34.818;2022-08-02T05:29:13;32.30;50.50
23618;DHT22;18207;32.078;34.818;2022-08-02T05:31:44;32.40;50.50
23618;DHT22;18207;32.078;34.818;2022-08-02T05:34:15;32.40;50.40
23618;DHT22;18207;32.078;34.818;2022-08-02T05:36:46;32.50;50.40
23618;DHT22;18207;32.078;34.818;2022-08-02T05:39:20;32.50;50.30
23618;DHT22;18207;32.078;34.818;2022-08-02T05:41:58;32.50;50.20
23618;DHT22;18207;32.078;34.818;2022-08-02T05:44:29;32.50;50.10
23618;DHT22;18207;32.078;34.818;2022-08-02T05:47:00;32.60;50.20
23618;DHT22;18207;32.078;34.818;2022-08-02T05:49:31;32.60;50.20
23618;DHT22;18207;32.078;34.818;2022-08-02T05:52:06;32.70;50.30
23618;DHT22;18207;32.078;34.818;2022-08-02T05:54:48;32.70;50.20
23618;DHT22;18207;32.078;34.818;2022-08-02T05:57:44;32.70;50.20
23618;DHT22;18207;32.078;34.818;2022-08-02T06:00:20;32.80;50.10
23618;DHT22;18207;32.078;34.818;2022-08-02T06:03:03;32.80;50.10
23618;DHT22;18207;32.078;34.818;2022-08-02T06:05:55;32.90;50.00
23618;DHT22;18207;32.078;34.818;2022-08-02T06:08:38;32.90;49.90
23618;DHT22;18207;32.078;34.818;2022-08-02T06:11:19;32.90;49.80
23618;DHT22;18207;32.078;34.818;2022-08-02T06:13:52;33.00;49.90
23618;DHT22;18207;32.078;34.818;2022-08-02T06:16:26;33.00;49.80
23618;DHT22;18207;32.078;34.818;2022-08-02T06:19:00;33.00;49.70
23618;DHT22;18207;32.078;34.818;2022-08-02T06:21:31;33.00;49.70
23618;DHT22;18207;32.078;34.818;2022-08-02T06:24:24;33.00;49.60
23618;DHT22;18207;32.078;34.818;2022-08-02T06:26:59;33.00;49.70
23618;DHT22;18207;32.078;34.818;2022-08-02T06:29:33;33.00;49.60
23618;DHT22;18207;32.078;34.818;2022-08-02T06:32:07;33.00;49.60
23618;DHT22;18207;32.078;34.818;2022-08-02T06:34:38;33.10;49.70
23618;DHT22;18207;32.078;34.818;2022-08-02T06:37:17;33.10;49.60
23618;DHT22;18207;32.078;34.818;2022-08-02T06:40:02;33.20;49.60
23618;DHT22;18207;32.078;34.818;2022-08-02T06:42:47;33.30;49.60
23618;DHT22;18207;32.078;34.818;2022-08-02T06:45:21;33.30;49.60
23618;DHT22;18207;32.078;34.818;2022-08-02T06:47:53;33.40;49.60
23618;DHT22;18207;32.078;34.818;2022-08-02T06:50:24;33.40;49.50
23618;DHT22;18207;32.078;34.818;2022-08-02T06:52:56;33.50;49.50
23618;DHT22;18207;32.078;34.818;2022-08-02T06:55:27;33.60;49.40
23618;DHT22;18207;32.078;34.818;2022-08-02T06:58:12;33.60;49.40
23618;DHT22;18207;32.078;34.818;2022-08-02T07:00:43;33.60;49.40
23618;DHT22;18207;32.078;34.818;2022-08-02T07:03:14;33.70;49.30
23618;DHT22;18207;32.078;34.818;2022-08-02T07:05:44;33.80;49.40
23618;DHT22;18207;32.078;34.818;2022-08-02T07:08:16;33.90;49.30
23618;DHT22;18207;32.078;34.818;2022-08-02T07:10:47;33.90;49.20
23618;DHT22;18207;32.078;34.818;2022-08-02T07:13:20;34.00;49.20
23618;DHT22;18207;32.078;34.818;2022-08-02T07:15:51;34.10;49.10
23618;DHT22;18207;32.078;34.818;2022-08-02T07:18:23;34.20;49.10
23618;DHT22;18207;32.078;34.818;2022-08-02T07:20:54;34.20;49.10
23618;DHT22;18207;32.078;34.818;2022-08-02T07:23:25;34.30;49.00
23618;DHT22;18207;32.078;34.818;2022-08-02T07:25:57;34.40;49.00
23618;DHT22;18207;32.078;34.818;2022-08-02T07:28:34;34.40;48.80
23618;DHT22;18207;32.078;34.818;2022-08-02T07:31:05;34.50;48.80
23618;DHT22;18207;32.078;34.818;2022-08-02T07:33:36;34.50;48.60
23618;DHT22;18207;32.078;34.818;2022-08-02T07:36:13;34.60;48.60
23618;DHT22;18207;32.078;34.818;2022-08-02T07:38:49;34.60;48.50
23618;DHT22;18207;32.078;34.818;2022-08-02T07:41:20;34.70;48.60
23618;DHT22;18207;32.078;34.818;2022-08-02T07:43:54;34.80;48.50
23618;DHT22;18207;32.078;34.818;2022-08-02T07:46:25;34.80;48.30
23618;DHT22;18207;32.078;34.818;2022-08-02T07:48:55;34.80;48.30
23618;DHT22;18207;32.078;34.818;2022-08-02T07:51:26;34.90;48.10
23618;DHT22;18207;32.078;34.818;2022-08-02T07:53:59;34.90;48.00
23618;DHT22;18207;32.078;34.818;2022-08-02T07:56:31;35.00;48.00
23618;DHT22;18207;32.078;34.818;2022-08-02T07:59:04;35.00;47.90
23618;DHT22;18207;32.078;34.818;2022-08-02T08:01:37;35.10;47.90
23618;DHT22;18207;32.078;34.818;2022-08-02T08:04:12;35.10;47.80
23618;DHT22;18207;32.078;34.818;2022-08-02T08:06:43;35.20;47.80
23618;DHT22;18207;32.078;34.818;2022-08-02T08:09:17;35.20;47.70
23618;DHT22;18207;32.078;34.818;2022-08-02T08:11:49;35.20;47.50
23618;DHT22;18207;32.078;34.818;2022-08-02T08:14:22;35.20;47.50
23618;DHT22;18207;32.078;34.818;2022-08-02T08:16:53;35.20;47.40
23618;DHT22;18207;32.078;34.818;2022-08-02T08:19:24;35.30;47.40
23618;DHT22;18207;32.078;34.818;2022-08-02T08:22:16;35.30;47.30
23618;DHT22;18207;32.078;34.818;2022-08-02T08:24:47;35.40;47.30
23618;DHT22;18207;32.078;34.818;2022-08-02T08:27:18;35.40;47.30
23618;DHT22;18207;32.078;34.818;2022-08-02T08:29:52;35.40;47.30
23618;DHT22;18207;32.078;34.818;2022-08-02T08:32:23;35.50;47.30
23618;DHT22;18207;32.078;34.818;2022-08-02T08:34:53;35.50;47.20
23618;DHT22;18207;32.078;34.818;2022-08-02T08:37:24;35.60;47.20
23618;DHT22;18207;32.078;34.818;2022-08-02T08:39:55;35.60;47.10
23618;DHT22;18207;32.078;34.818;2022-08-02T08:42:26;35.60;47.00
23618;DHT22;18207;32.078;34.818;2022-08-02T08:45:00;35.60;47.00
23618;DHT22;18207;32.078;34.818;2022-08-02T08:47:33;35.70;47.00
23618;DHT22;18207;32.078;34.818;2022-08-02T08:50:18;35.70;46.90
23618;DHT22;18207;32.078;34.818;2022-08-02T08:53:01;35.70;46.90
23618;DHT22;18207;32.078;34.818;2022-08-02T08:55:35;35.80;47.00
23618;DHT22;18207;32.078;34.818;2022-08-02T08:58:07;35.80;46.80
23618;DHT22;18207;32.078;34.818;2022-08-02T09:00:39;35.80;46.80
23618;DHT22;18207;32.078;34.818;2022-08-02T09:03:11;35.80;46.70
23618;DHT22;18207;32.078;34.818;2022-08-02T09:05:42;35.80;46.60
23618;DHT22;18207;32.078;34.818;2022-08-02T09:08:14;35.90;46.60
23618;DHT22;18207;32.078;34.818;2022-08-02T09:10:47;35.90;46.60
23618;DHT22;18207;32.078;34.818;2022-08-02T09:13:19;35.90;46.40
23618;DHT22;18207;32.078;34.818;2022-08-02T09:16:13;35.90;46.30
23618;DHT22;18207;32.078;34.818;2022-08-02T09:18:45;35.90;46.20
23618;DHT22;18207;32.078;34.818;2022-08-02T09:21:16;35.90;46.20
23618;DHT22;18207;32.078;34.818;2022-08-02T09:23:49;35.90;46.20
23618;DHT22;18207;32.078;34.818;2022-08-02T09:26:23;35.90;46.20
23618;DHT22;18207;32.078;34.818;2022-08-02T09:29:00;35.90;46.70
23618;DHT22;18207;32.078;34.818;2022-08-02T09:31:34;35.90;46.00
23618;DHT22;18207;32.078;34.818;2022-08-02T09:34:16;35.90;46.10
23618;DHT22;18207;32.078;34.818;2022-08-02T09:36:50;36.00;46.10
23618;DHT22;18207;32.078;34.818;2022-08-02T09:39:22;36.00;46.00
23618;DHT22;18207;32.078;34.818;2022-08-02T09:42:07;36.00;46.10
23618;DHT22;18207;32.078;34.818;2022-08-02T09:44:52;36.00;45.90
23618;DHT22;18207;32.078;34.818;2022-08-02T09:47:27;36.00;45.90
23618;DHT22;18207;32.078;34.818;2022-08-02T09:50:04;36.00;46.00
23618;DHT22;18207;32.078;34.818;2022-08-02T09:52:42;36.00;45.90
23618;DHT22;18207;32.078;34.818;2022-08-02T09:55:12;36.10;45.90
23618;DHT22;18207;32.078;34.818;2022-08-02T09:57:43;36.10;45.80
23618;DHT22;18207;32.078;34.818;2022-08-02T10:00:18;36.10;45.70
23618;DHT22;18207;32.078;34.818;2022-08-02T10:03:11;36.00;45.70
23618;DHT22;18207;32.078;34.818;2022-08-02T10:05:50;36.00;45.60
23618;DHT22;18207;32.078;34.818;2022-08-02T10:08:29;36.00;45.60
23618;DHT22;18207;32.078;34.818;2022-08-02T10:11:01;36.00;45.60
23618;DHT22;18207;32.078;34.818;2022-08-02T10:13:34;36.00;45.60
23618;DHT22;18207;32.078;34.818;2022-08-02T10:16:05;36.00;45.60
23618;DHT22;18207;32.078;34.818;2022-08-02T10:18:37;36.00;45.70
23618;DHT22;18207;32.078;34.818;2022-08-02T10:21:15;36.00;45.70
23618;DHT22;18207;32.078;34.818;2022-08-02T10:24:03;36.00;45.70
23618;DHT22;18207;32.078;34.818;2022-08-02T10:26:39;36.00;45.70
23618;DHT22;18207;32.078;34.818;2022-08-02T10:29:15;36.00;45.60
23618;DHT22;18207;32.078;34.818;2022-08-02T10:31:52;36.00;45.60
23618;DHT22;18207;32.078;34.818;2022-08-02T10:34:31;36.00;45.60
23618;DHT22;18207;32.078;34.818;2022-08-02T10:37:05;36.00;45.60
23618;DHT22;18207;32.078;34.818;2022-08-02T10:39:42;36.00;45.60
23618;DHT22;18207;32.078;34.818;2022-08-02T10:42:45;36.00;45.60
23618;DHT22;18207;32.078;34.818;2022-08-02T10:45:19;36.00;45.50
23618;DHT22;18207;32.078;34.818;2022-08-02T10:48:00;36.00;45.50
23618;DHT22;18207;32.078;34.818;2022-08-02T10:51:01;36.00;45.40
23618;DHT22;18207;32.078;34.818;2022-08-02T10:53:33;36.00;45.40
23618;DHT22;18207;32.078;34.818;2022-08-02T10:56:04;36.00;45.50
23618;DHT22;18207;32.078;34.818;2022-08-02T10:58:36;36.00;45.50
23618;DHT22;18207;32.078;34.818;2022-08-02T11:01:28;36.00;45.50
23618;DHT22;18207;32.078;34.818;2022-08-02T11:04:06;36.00;45.40
23618;DHT22;18207;32.078;34.818;2022-08-02T11:07:10;36.00;46.20
23618;DHT22;18207;32.078;34.818;2022-08-02T11:09:44;36.00;45.40
23618;DHT22;18207;32.078;34.818;2022-08-02T11:12:17;36.00;45.50
23618;DHT22;18207;32.078;34.818;2022-08-02T11:14:58;36.00;45.50
23618;DHT22;18207;32.078;34.818;2022-08-02T11:17:51;36.00;45.50
23618;DHT22;18207;32.078;34.818;2022-08-02T11:20:24;36.00;45.40
23618;DHT22;18207;32.078;34.818;2022-08-02T11:23:32;36.00;45.50
23618;DHT22;18207;32.078;34.818;2022-08-02T11:26:43;36.00;45.50
23618;DHT22;18207;32.078;34.818;2022-08-02T11:29:14;36.00;45.50
23618;DHT22;18207;32.078;34.818;2022-08-02T11:31:47;36.00;45.60
23618;DHT22;18207;32.078;34.818;2022-08-02T11:34:24;36.00;45.60
23618;DHT22;18207;32.078;34.818;2022-08-02T11:37:04;36.00;45.60
23618;DHT22;18207;32.078;34.818;2022-08-02T11:39:38;36.00;45.50
23618;DHT22;18207;32.078;34.818;2022-08-02T11:42:09;36.00;45.60
23618;DHT22;18207;32.078;34.818;2022-08-02T11:44:41;36.00;46.20
23618;DHT22;18207;32.078;34.818;2022-08-02T11:47:14;36.00;45.50
23618;DHT22;18207;32.078;34.818;2022-08-02T11:49:46;36.00;45.50
23618;DHT22;18207;32.078;34.818;2022-08-02T11:52:37;36.00;45.50
23618;DHT22;18207;32.078;34.818;2022-08-02T11:55:11;36.00;45.40
23618;DHT22;18207;32.078;34.818;2022-08-02T11:57:42;35.90;45.40
23618;DHT22;18207;32.078;34.818;2022-08-02T12:00:31;35.90;45.50
23618;DHT22;18207;32.078;34.818;2022-08-02T12:03:04;35.90;45.50
23618;DHT22;18207;32.078;34.818;2022-08-02T12:05:37;35.90;45.50
23618;DHT22;18207;32.078;34.818;2022-08-02T12:08:28;35.90;45.50
23618;DHT22;18207;32.078;34.818;2022-08-02T12:11:03;35.90;45.50
23618;DHT22;18207;32.078;34.818;2022-08-02T12:13:43;35.90;45.60
23618;DHT22;18207;32.078;34.818;2022-08-02T12:16:23;35.90;45.60
23618;DHT22;18207;32.078;34.818;2022-08-02T12:19:13;35.90;45.60
23618;DHT22;18207;32.078;34.818;2022-08-02T12:22:09;35.90;45.60
23618;DHT22;18207;32.078;34.818;2022-08-02T12:24:52;35.90;45.60
23618;DHT22;18207;32.078;34.818;2022-08-02T12:27:33;35.90;45.60
23618;DHT22;18207;32.078;34.818;2022-08-02T12:30:10;35.80;45.50
23618;DHT22;18207;32.078;34.818;2022-08-02T12:32:43;35.80;45.50
23618;DHT22;18207;32.078;34.818;2022-08-02T12:35:15;35.80;45.50
23618;DHT22;18207;32.078;34.818;2022-08-02T12:37:54;35.80;45.60
23618;DHT22;18207;32.078;34.818;2022-08-02T12:40:31;35.80;45.50
23618;DHT22;18207;32.078;34.818;2022-08-02T12:43:06;35.80;45.50
23618;DHT22;18207;32.078;34.818;2022-08-02T12:45:47;35.80;45.40
23618;DHT22;18207;32.078;34.818;2022-08-02T12:48:35;35.80;45.40
23618;DHT22;18207;32.078;34.818;2022-08-02T12:51:29;35.70;45.40
23618;DHT22;18207;32.078;34.818;2022-08-02T12:54:23;35.70;45.40
23618;DHT22;18207;32.078;34.818;2022-08-02T12:57:09;35.70;45.40
23618;DHT22;18207;32.078;34.818;2022-08-02T12:59:48;35.70;45.30
23618;DHT22;18207;32.078;34.818;2022-08-02T13:02:23;35.70;45.30
23618;DHT22;18207;32.078;34.818;2022-08-02T13:05:01;35.60;45.20
23618;DHT22;18207;32.078;34.818;2022-08-02T13:07:33;35.60;45.20
23618;DHT22;18207;32.078;34.818;2022-08-02T13:10:04;35.60;45.20
23618;DHT22;18207;32.078;34.818;2022-08-02T13:12:35;35.60;45.30
23618;DHT22;18207;32.078;34.818;2022-08-02T13:15:09;35.60;45.30
23618;DHT22;18207;32.078;34.818;2022-08-02T13:18:01;35.50;45.30
23618;DHT22;18207;32.078;34.818;2022-08-02T13:20:32;35.50;45.40
23618;DHT22;18207;32.078;34.818;2022-08-02T13:23:09;35.50;45.40
23618;DHT22;18207;32.078;34.818;2022-08-02T13:25:48;35.40;45.40
23618;DHT22;18207;32.078;34.818;2022-08-02T13:28:22;35.40;45.40
23618;DHT22;18207;32.078;34.818;2022-08-02T13:30:55;35.30;45.40
23618;DHT22;18207;32.078;34.818;2022-08-02T13:33:47;35.30;45.40
23618;DHT22;18207;32.078;34.818;2022-08-02T13:36:18;35.40;45.40
23618;DHT22;18207;32.078;34.818;2022-08-02T13:38:49;35.30;45.40
23618;DHT22;18207;32.078;34.818;2022-08-02T13:41:21;35.20;45.40
23618;DHT22;18207;32.078;34.818;2022-08-02T13:43:52;35.20;45.40
23618;DHT22;18207;32.078;34.818;2022-08-02T13:46:37;35.20;45.40
23618;DHT22;18207;32.078;34.818;2022-08-02T13:49:12;35.10;45.40
23618;DHT22;18207;32.078;34.818;2022-08-02T13:51:46;35.10;45.40
23618;DHT22;18207;32.078;34.818;2022-08-02T13:54:17;35.00;45.30
23618;DHT22;18207;32.078;34.818;2022-08-02T13:56:49;35.00;45.30
23618;DHT22;18207;32.078;34.818;2022-08-02T13:59:20;35.00;45.40
23618;DHT22;18207;32.078;34.818;2022-08-02T14:02:14;34.90;45.40
23618;DHT22;18207;32.078;34.818;2022-08-02T14:04:45;34.90;45.40
23618;DHT22;18207;32.078;34.818;2022-08-02T14:07:16;34.90;45.40
23618;DHT22;18207;32.078;34.818;2022-08-02T14:09:48;34.80;45.40
23618;DHT22;18207;32.078;34.818;2022-08-02T14:12:18;34.80;45.50
23618;DHT22;18207;32.078;34.818;2022-08-02T14:14:50;34.80;45.50
23618;DHT22;18207;32.078;34.818;2022-08-02T14:17:23;34.80;45.60
23618;DHT22;18207;32.078;34.818;2022-08-02T14:19:56;34.80;45.70
23618;DHT22;18207;32.078;34.818;2022-08-02T14:22:28;34.70;45.80
23618;DHT22;18207;32.078;34.818;2022-08-02T14:24:58;34.70;45.80
23618;DHT22;18207;32.078;34.818;2022-08-02T14:27:36;34.70;45.70
23618;DHT22;18207;32.078;34.818;2022-08-02T14:30:07;34.70;45.70
23618;DHT22;18207;32.078;34.818;2022-08-02T14:32:40;34.70;45.80
23618;DHT22;18207;32.078;34.818;2022-08-02T14:35:11;34.60;45.70
23618;DHT22;18207;32.078;34.818;2022-08-02T14:37:43;34.60;45.70
23618;DHT22;18207;32.078;34.818;2022-08-02T14:40:15;34.70;45.60
23618;DHT22;18207;32.078;34.818;2022-08-02T14:42:57;34.60;45.70
23618;DHT22;18207;32.078;34.818;2022-08-02T14:45:30;34.60;45.70
23618;DHT22;18207;32.078;34.818;2022-08-02T14:48:09;34.60;45.70
23618;DHT22;18207;32.078;34.818;2022-08-02T14:50:41;34.50;45.50
23618;DHT22;18207;32.078;34.818;2022-08-02T14:53:12;34.60;45.70
23618;DHT22;18207;32.078;34.818;2022-08-02T14:55:42;34.50;45.80
23618;DHT22;18207;32.078;34.818;2022-08-02T14:58:14;34.50;45.80
23618;DHT22;18207;32.078;34.818;2022-08-02T15:00:46;34.50;45.90
23618;DHT22;18207;32.078;34.818;2022-08-02T15:03:21;34.50;45.90
23618;DHT22;18207;32.078;34.818;2022-08-02T15:05:56;34.50;45.80
23618;DHT22;18207;32.078;34.818;2022-08-02T15:08:28;34.40;45.60
23618;DHT22;18207;32.078;34.818;2022-08-02T15:10:59;34.40;45.60
23618;DHT22;18207;32.078;34.818;2022-08-02T15:13:30;34.40;45.60
23618;DHT22;18207;32.078;34.818;2022-08-02T15:16:08;34.40;45.50
23618;DHT22;18207;32.078;34.818;2022-08-02T15:18:42;34.30;45.50
23618;DHT22;18207;32.078;34.818;2022-08-02T15:21:13;34.30;45.70
23618;DHT22;18207;32.078;34.818;2022-08-02T15:24:06;34.30;45.80
23618;DHT22;18207;32.078;34.818;2022-08-02T15:26:38;34.30;45.80
23618;DHT22;18207;32.078;34.818;2022-08-02T15:29:09;34.20;45.80
23618;DHT22;18207;32.078;34.818;2022-08-02T15:31:40;34.20;45.80
23618;DHT22;18207;32.078;34.818;2022-08-02T15:34:14;34.20;45.80
23618;DHT22;18207;32.078;34.818;2022-08-02T15:36:45;34.20;45.90
23618;DHT22;18207;32.078;34.818;2022-08-02T15:39:16;34.20;46.00
23618;DHT22;18207;32.078;34.818;2022-08-02T15:41:48;34.20;46.00
23618;DHT22;18207;32.078;34.818;2022-08-02T15:44:22;34.10;45.90
23618;DHT22;18207;32.078;34.818;2022-08-02T15:46:53;34.10;45.90
23618;DHT22;18207;32.078;34.818;2022-08-02T15:49:26;34.00;45.90
23618;DHT22;18207;32.078;34.818;2022-08-02T15:51:58;34.00;46.00
23618;DHT22;18207;32.078;34.818;2022-08-02T15:54:32;34.00;46.00
23618;DHT22;18207;32.078;34.818;2022-08-02T15:57:02;34.00;46.00
23618;DHT22;18207;32.078;34.818;2022-08-02T15:59:34;34.00;46.10
23618;DHT22;18207;32.078;34.818;2022-08-02T16:02:06;33.90;46.10
23618;DHT22;18207;32.078;34.818;2022-08-02T16:04:40;33.90;46.20
23618;DHT22;18207;32.078;34.818;2022-08-02T16:07:11;33.90;46.10
23618;DHT22;18207;32.078;34.818;2022-08-02T16:09:42;33.90;45.80
23618;DHT22;18207;32.078;34.818;2022-08-02T16:12:12;33.90;45.80